Terminal Aerodrome Forecast
Issued by NWS

Home | Current Version | Previous Version | Text Only | Print | Product List | Glossary On
Versions: 1 2 3 4 5 6 7 8 9 10 11 12 13 14 15 16
000
FTUS45 KGJT 172332
TAFDRO
TAF
KDRO 172332Z 1800/1824 24008G16KT P6SM FEW250
     FM180130 30006KT P6SM FEW250
     FM180700 36003KT P6SM SCT250
     FM181600 25005KT P6SM SCT070 BKN120
     FM181900 23010G20KT P6SM SCT120=

USA.gov is the U.S. government's official web portal to all federal, state and local government web resources and services.